Details From KLGA - La Guardia
To KRID - Richmond Muni
Flight Number -
Tags Generated
Created
Modified
Stats Distance 506 nm / 938 km
Max Altitude 0 ft / 0 m
Waypoints 4
Social Downloads 0
Likes 0
Share VATSIM

Download

Looking for another format? Having issues loading an existing format? Contact us
Advertisement - Login to hide

Notes

Generated

Route

KLGA NADNE EREME KRID

ID Type Via Altitude Latitude Longitude Leg Dist Tot Dist Heading (true) Name
O KLGA APT - 0 ft / 0 m 40.78229˚ -73.87852˚ - 0 nm - -
NADNE FIX - 0 ft / 0 m 40.42328˚ -79.07128˚ 237 nm 237 nm 266° / 263° -
EREME FIX - 0 ft / 0 m 39.78861˚ -84.44539˚ 249 nm 487 nm 263° / 259° -
O KRID APT - 0 ft / 0 m 39.76087˚ -84.84989˚ 18 nm 506 nm 265° / 265° -

Altitude Profile

Advertisement - Login to hide

Weather


0- 5 10 15 20 25 30 35+ Temperature / ° C

Clouds and Precipitation
Forecast for 2017-12-13 00:00 UTC. Updated 34 minutes ago

Ground ~20,000 ft ~40,000 ft Winds

KLGA

Details ICAO KLGA (LGA)
Name La Guardia
Region United States
Timezone America/New_York (UTC-5.0)
Stats Elevation 22 ft / 7 m (AMSL)
Location 40.777236° -73.872610°
Runways 2
Magnetic Variation 12.980° W

METAR

KLGA 121851Z 29011KT 10SM -RA SCT028 BKN038 BKN055 OVC150 08/02 A2943 RMK AO2 RAB34 SLP966 P0000 T00830017

Decode

TAF

KLGA 121847Z 1219/1324 27010G17KT P6SM VCSH SCT025 BKN040 BKN100 FM130000 27018G26KT P6SM VCSH SCT025 BKN050 BKN100 FM130300 30020G31KT P6SM VCSH FEW030 BKN050 FM130700 28022G33KT P6SM SCT050 BKN100 FM131300 28024G35KT P6SM BKN050 FM132100 27021G30KT P6SM BKN050

Decode

Departure Runways

ID Width Length Bearing (true) Bearing (mag) Surface Threshold Offset Overrun Length
04 151 ft / 46 m 7,002 ft / 2,134 m 32.04° 45.02° Asphalt 0 ft / 0 m 312 ft / 95 m
13 151 ft / 46 m 6,990 ft / 2,130 m 122.24° 135.22° Asphalt 0 ft / 0 m 98 ft / 30 m
22 151 ft / 46 m 7,002 ft / 2,134 m 212.05° 225.03° Asphalt 0 ft / 0 m 92 ft / 28 m
31 151 ft / 46 m 6,990 ft / 2,130 m 302.26° 315.24° Asphalt 0 ft / 0 m 361 ft / 110 m

KRID

Details ICAO KRID (RID)
Name Richmond Muni
Region United States
Timezone America/Indiana/Indianapolis (UTC-5.0)
Stats Elevation 1,140 ft / 347 m (AMSL)
Location 39.757410° -84.843052°
Runways 3
Magnetic Variation 5.723° W

METAR

KRID 121935Z AUTO 30019G23KT 10SM SCT033 BKN048 BKN060 M05/M10 A2993 RMK AO2

Decode

TAF

Not found

Destination Runways

ID Width Length Bearing (true) Bearing (mag) Surface Threshold Offset Overrun Length
06 150 ft / 46 m 5,494 ft / 1,675 m 55.05° 60.77° Asphalt 300 ft / 91 m 0 ft / 0 m
10 150 ft / 46 m 3,552 ft / 1,083 m 100.18° 105.90° Asphalt 0 ft / 0 m 0 ft / 0 m
15 100 ft / 30 m 5,004 ft / 1,525 m 145.22° 150.94° Asphalt 0 ft / 0 m 0 ft / 0 m
24 150 ft / 46 m 5,494 ft / 1,675 m 235.06° 240.78° Asphalt 0 ft / 0 m 0 ft / 0 m
28 150 ft / 46 m 3,552 ft / 1,083 m 280.19° 285.91° Asphalt 0 ft / 0 m 0 ft / 0 m
33 100 ft / 30 m 5,004 ft / 1,525 m 325.23° 330.95° Asphalt 0 ft / 0 m 0 ft / 0 m